GOOD

Diourbel Airport

Diourbel, Senegal
METAR GOOD 210300Z 00000KT 8000 NSC 25/23 Q1013
Observed Flight Rules
Aug-21 @ 03:00 UTC (an hour ago) Marginal Visual Flight Rules
Visibility Clouds
7,998 meters
  • Clear skies
Temperatures Readings
Current 25°C / 77°F
Dewpoint 23°C / 73°F
Humidity 89%
Altimeter 29.91" Hg
Pressure 1013 hPa
Elevation 9
METAR GOOD 210300Z 00000KT 8000 NSC 25/23 Q1013
Observed Flight Rules
Aug-21 @ 03:00 UTC
(an hour ago)
MVFR
Clouds
  • Clear skies
Temperature Dewpoint
25°C / 77°F 23°C / 73°F
Humidity Altimeter Pressure
89% 29.91" Hg 1013 hPa